sensor_id;sensor_type;location;lat;lon;timestamp;P1;durP1;ratioP1;P2;durP2;ratioP2
85912;SDS011;76451;55.848;37.638;2024-02-26T00:00:02;5.70;;;3.90;;
85912;SDS011;76451;55.848;37.638;2024-02-26T00:00:08;6.23;;;3.77;;
85912;SDS011;76451;55.848;37.638;2024-02-26T00:00:16;6.60;;;3.60;;
85912;SDS011;76451;55.848;37.638;2024-02-26T00:00:21;6.50;;;3.50;;
85912;SDS011;76451;55.848;37.638;2024-02-26T00:00:28;5.60;;;3.10;;
85912;SDS011;76451;55.848;37.638;2024-02-26T00:00:34;5.13;;;2.80;;
85912;SDS011;76451;55.848;37.638;2024-02-26T00:00:39;3.03;;;2.25;;
85912;SDS011;76451;55.848;37.638;2024-02-26T00:00:45;3.25;;;2.40;;
85912;SDS011;76451;55.848;37.638;2024-02-26T00:00:51;3.67;;;2.67;;
85912;SDS011;76451;55.848;37.638;2024-02-26T00:00:56;4.03;;;3.00;;
85912;SDS011;76451;55.848;37.638;2024-02-26T00:01:02;4.90;;;3.13;;
85912;SDS011;76451;55.848;37.638;2024-02-26T00:01:07;6.15;;;3.53;;
85912;SDS011;76451;55.848;37.638;2024-02-26T00:01:12;7.80;;;3.83;;
85912;SDS011;76451;55.848;37.638;2024-02-26T00:01:18;7.83;;;3.80;;
85912;SDS011;76451;55.848;37.638;2024-02-26T00:01:23;8.07;;;3.72;;
85912;SDS011;76451;55.848;37.638;2024-02-26T00:01:31;8.40;;;3.80;;
85912;SDS011;76451;55.848;37.638;2024-02-26T00:01:36;7.72;;;3.75;;
85912;SDS011;76451;55.848;37.638;2024-02-26T00:01:42;6.30;;;3.67;;
85912;SDS011;76451;55.848;37.638;2024-02-26T00:01:50;6.57;;;3.80;;
85912;SDS011;76451;55.848;37.638;2024-02-26T00:01:55;6.27;;;3.80;;
85912;SDS011;76451;55.848;37.638;2024-02-26T00:02:00;6.13;;;3.80;;
85912;SDS011;76451;55.848;37.638;2024-02-26T00:02:06;6.32;;;3.92;;
85912;SDS011;76451;55.848;37.638;2024-02-26T00:02:11;6.68;;;3.70;;
85912;SDS011;76451;55.848;37.638;2024-02-26T00:02:17;6.03;;;3.30;;
85912;SDS011;76451;55.848;37.638;2024-02-26T00:02:23;5.53;;;3.30;;
85912;SDS011;76451;55.848;37.638;2024-02-26T00:02:28;5.40;;;3.33;;
85912;SDS011;76451;55.848;37.638;2024-02-26T00:02:34;5.93;;;3.50;;
85912;SDS011;76451;55.848;37.638;2024-02-26T00:02:42;4.93;;;3.55;;
85912;SDS011;76451;55.848;37.638;2024-02-26T00:02:48;5.32;;;3.63;;
85912;SDS011;76451;55.848;37.638;2024-02-26T00:02:53;5.47;;;3.50;;
85912;SDS011;76451;55.848;37.638;2024-02-26T00:02:58;5.20;;;3.30;;
85912;SDS011;76451;55.848;37.638;2024-02-26T00:03:03;4.30;;;2.83;;
85912;SDS011;76451;55.848;37.638;2024-02-26T00:03:09;4.38;;;2.75;;
85912;SDS011;76451;55.848;37.638;2024-02-26T00:03:14;5.23;;;3.13;;
85912;SDS011;76451;55.848;37.638;2024-02-26T00:03:19;5.40;;;3.13;;
85912;SDS011;76451;55.848;37.638;2024-02-26T00:03:25;4.87;;;2.87;;
85912;SDS011;76451;55.848;37.638;2024-02-26T00:03:30;4.85;;;2.83;;
85912;SDS011;76451;55.848;37.638;2024-02-26T00:03:37;5.20;;;2.93;;
85912;SDS011;76451;55.848;37.638;2024-02-26T00:03:43;4.75;;;2.85;;
85912;SDS011;76451;55.848;37.638;2024-02-26T00:03:50;4.74;;;2.88;;
85912;SDS011;76451;55.848;37.638;2024-02-26T00:03:57;5.10;;;3.07;;
85912;SDS011;76451;55.848;37.638;2024-02-26T00:04:04;5.30;;;3.18;;
85912;SDS011;76451;55.848;37.638;2024-02-26T00:04:11;4.93;;;2.87;;
85912;SDS011;76451;55.848;37.638;2024-02-26T00:04:16;4.30;;;2.64;;
85912;SDS011;76451;55.848;37.638;2024-02-26T00:04:22;3.93;;;2.50;;
85912;SDS011;76451;55.848;37.638;2024-02-26T00:04:27;4.37;;;2.60;;
85912;SDS011;76451;55.848;37.638;2024-02-26T00:04:32;4.65;;;2.70;;
85912;SDS011;76451;55.848;37.638;2024-02-26T00:04:37;5.70;;;2.93;;
85912;SDS011;76451;55.848;37.638;2024-02-26T00:04:43;6.17;;;3.27;;
85912;SDS011;76451;55.848;37.638;2024-02-26T00:04:48;6.03;;;3.13;;
85912;SDS011;76451;55.848;37.638;2024-02-26T00:04:53;6.00;;;3.20;;
85912;SDS011;76451;55.848;37.638;2024-02-26T00:04:58;5.60;;;3.00;;
85912;SDS011;76451;55.848;37.638;2024-02-26T00:05:05;5.30;;;2.97;;
85912;SDS011;76451;55.848;37.638;2024-02-26T00:05:10;5.03;;;2.90;;
85912;SDS011;76451;55.848;37.638;2024-02-26T00:05:15;5.05;;;2.85;;
85912;SDS011;76451;55.848;37.638;2024-02-26T00:05:21;5.03;;;2.90;;
85912;SDS011;76451;55.848;37.638;2024-02-26T00:05:26;5.33;;;3.37;;
85912;SDS011;76451;55.848;37.638;2024-02-26T00:05:31;5.67;;;3.77;;
85912;SDS011;76451;55.848;37.638;2024-02-26T00:05:37;4.97;;;3.70;;
85912;SDS011;76451;55.848;37.638;2024-02-26T00:05:43;4.67;;;3.67;;
85912;SDS011;76451;55.848;37.638;2024-02-26T00:05:49;5.17;;;3.80;;
85912;SDS011;76451;55.848;37.638;2024-02-26T00:05:54;4.93;;;3.53;;
85912;SDS011;76451;55.848;37.638;2024-02-26T00:06:01;4.40;;;2.87;;
85912;SDS011;76451;55.848;37.638;2024-02-26T00:06:07;4.05;;;2.67;;
85912;SDS011;76451;55.848;37.638;2024-02-26T00:06:12;4.50;;;2.90;;
85912;SDS011;76451;55.848;37.638;2024-02-26T00:06:18;4.47;;;2.92;;
85912;SDS011;76451;55.848;37.638;2024-02-26T00:06:23;4.30;;;2.83;;
85912;SDS011;76451;55.848;37.638;2024-02-26T00:06:29;4.30;;;3.00;;
85912;SDS011;76451;55.848;37.638;2024-02-26T00:06:34;5.20;;;3.40;;
85912;SDS011;76451;55.848;37.638;2024-02-26T00:06:40;5.10;;;3.50;;
85912;SDS011;76451;55.848;37.638;2024-02-26T00:06:46;5.28;;;3.45;;
85912;SDS011;76451;55.848;37.638;2024-02-26T00:06:51;4.87;;;3.30;;
85912;SDS011;76451;55.848;37.638;2024-02-26T00:06:59;5.50;;;3.23;;
85912;SDS011;76451;55.848;37.638;2024-02-26T00:07:04;4.73;;;2.80;;
85912;SDS011;76451;55.848;37.638;2024-02-26T00:07:09;4.73;;;2.50;;
85912;SDS011;76451;55.848;37.638;2024-02-26T00:07:15;4.20;;;2.40;;
85912;SDS011;76451;55.848;37.638;2024-02-26T00:07:20;4.40;;;2.50;;
85912;SDS011;76451;55.848;37.638;2024-02-26T00:07:25;4.67;;;2.73;;
85912;SDS011;76451;55.848;37.638;2024-02-26T00:07:31;4.93;;;2.77;;
85912;SDS011;76451;55.848;37.638;2024-02-26T00:07:36;5.35;;;3.08;;
85912;SDS011;76451;55.848;37.638;2024-02-26T00:07:42;5.50;;;3.20;;
85912;SDS011;76451;55.848;37.638;2024-02-26T00:07:47;5.30;;;3.22;;
85912;SDS011;76451;55.848;37.638;2024-02-26T00:07:53;5.53;;;3.50;;
85912;SDS011;76451;55.848;37.638;2024-02-26T00:07:59;4.77;;;3.40;;
85912;SDS011;76451;55.848;37.638;2024-02-26T00:08:04;4.97;;;3.55;;
85912;SDS011;76451;55.848;37.638;2024-02-26T00:08:09;4.97;;;3.47;;
85912;SDS011;76451;55.848;37.638;2024-02-26T00:08:15;5.83;;;3.53;;
85912;SDS011;76451;55.848;37.638;2024-02-26T00:08:20;5.70;;;3.43;;
85912;SDS011;76451;55.848;37.638;2024-02-26T00:08:25;5.10;;;3.22;;
85912;SDS011;76451;55.848;37.638;2024-02-26T00:08:31;5.53;;;3.27;;
85912;SDS011;76451;55.848;37.638;2024-02-26T00:08:36;5.10;;;2.97;;
85912;SDS011;76451;55.848;37.638;2024-02-26T00:08:41;4.70;;;3.05;;
85912;SDS011;76451;55.848;37.638;2024-02-26T00:08:46;4.63;;;3.00;;
85912;SDS011;76451;55.848;37.638;2024-02-26T00:08:52;5.83;;;2.87;;
85912;SDS011;76451;55.848;37.638;2024-02-26T00:08:57;5.57;;;2.63;;
85912;SDS011;76451;55.848;37.638;2024-02-26T00:09:02;5.50;;;2.55;;
85912;SDS011;76451;55.848;37.638;2024-02-26T00:09:10;5.83;;;2.60;;
85912;SDS011;76451;55.848;37.638;2024-02-26T00:09:16;5.87;;;2.57;;
85912;SDS011;76451;55.848;37.638;2024-02-26T00:09:21;3.83;;;2.70;;
85912;SDS011;76451;55.848;37.638;2024-02-26T00:09:26;4.20;;;3.03;;
85912;SDS011;76451;55.848;37.638;2024-02-26T00:09:32;4.20;;;3.30;;
85912;SDS011;76451;55.848;37.638;2024-02-26T00:09:40;4.58;;;3.28;;
85912;SDS011;76451;55.848;37.638;2024-02-26T00:09:46;5.63;;;3.65;;
85912;SDS011;76451;55.848;37.638;2024-02-26T00:09:51;6.13;;;3.77;;
85912;SDS011;76451;55.848;37.638;2024-02-26T00:09:56;5.80;;;3.53;;
85912;SDS011;76451;55.848;37.638;2024-02-26T00:10:01;6.07;;;3.23;;
85912;SDS011;76451;55.848;37.638;2024-02-26T00:10:07;5.82;;;3.25;;
85912;SDS011;76451;55.848;37.638;2024-02-26T00:10:13;6.15;;;3.22;;
85912;SDS011;76451;55.848;37.638;2024-02-26T00:10:18;5.63;;;3.07;;
85912;SDS011;76451;55.848;37.638;2024-02-26T00:10:24;5.57;;;3.27;;
85912;SDS011;76451;55.848;37.638;2024-02-26T00:10:29;5.78;;;3.45;;
85912;SDS011;76451;55.848;37.638;2024-02-26T00:10:34;5.17;;;3.47;;
85912;SDS011;76451;55.848;37.638;2024-02-26T00:10:39;4.90;;;3.50;;
85912;SDS011;76451;55.848;37.638;2024-02-26T00:10:45;4.65;;;3.50;;
85912;SDS011;76451;55.848;37.638;2024-02-26T00:10:50;4.77;;;3.63;;
85912;SDS011;76451;55.848;37.638;2024-02-26T00:10:55;5.30;;;3.50;;
85912;SDS011;76451;55.848;37.638;2024-02-26T00:11:01;4.87;;;3.27;;
85912;SDS011;76451;55.848;37.638;2024-02-26T00:11:07;5.05;;;3.35;;
85912;SDS011;76451;55.848;37.638;2024-02-26T00:11:12;5.53;;;3.25;;
85912;SDS011;76451;55.848;37.638;2024-02-26T00:11:18;5.18;;;3.03;;
85912;SDS011;76451;55.848;37.638;2024-02-26T00:11:23;4.43;;;2.87;;
85912;SDS011;76451;55.848;37.638;2024-02-26T00:11:29;5.00;;;2.97;;
85912;SDS011;76451;55.848;37.638;2024-02-26T00:11:37;5.82;;;3.10;;
85912;SDS011;76451;55.848;37.638;2024-02-26T00:11:42;5.80;;;3.42;;
85912;SDS011;76451;55.848;37.638;2024-02-26T00:11:48;6.03;;;3.50;;
85912;SDS011;76451;55.848;37.638;2024-02-26T00:11:53;6.22;;;3.60;;
85912;SDS011;76451;55.848;37.638;2024-02-26T00:12:00;5.77;;;3.40;;
85912;SDS011;76451;55.848;37.638;2024-02-26T00:12:05;5.28;;;3.25;;
85912;SDS011;76451;55.848;37.638;2024-02-26T00:12:11;4.83;;;2.97;;
85912;SDS011;76451;55.848;37.638;2024-02-26T00:12:16;4.80;;;3.00;;
85912;SDS011;76451;55.848;37.638;2024-02-26T00:12:21;4.68;;;3.00;;
85912;SDS011;76451;55.848;37.638;2024-02-26T00:12:26;4.47;;;3.00;;
85912;SDS011;76451;55.848;37.638;2024-02-26T00:12:32;4.47;;;3.20;;
85912;SDS011;76451;55.848;37.638;2024-02-26T00:12:37;4.70;;;3.37;;
85912;SDS011;76451;55.848;37.638;2024-02-26T00:12:44;4.44;;;3.24;;
85912;SDS011;76451;55.848;37.638;2024-02-26T00:12:49;4.50;;;3.17;;
85912;SDS011;76451;55.848;37.638;2024-02-26T00:12:54;4.78;;;3.40;;
85912;SDS011;76451;55.848;37.638;2024-02-26T00:13:00;4.83;;;3.43;;
85912;SDS011;76451;55.848;37.638;2024-02-26T00:13:05;6.20;;;3.40;;
85912;SDS011;76451;55.848;37.638;2024-02-26T00:13:10;7.20;;;3.40;;
85912;SDS011;76451;55.848;37.638;2024-02-26T00:13:15;7.93;;;3.40;;
85912;SDS011;76451;55.848;37.638;2024-02-26T00:13:21;8.27;;;3.17;;
85912;SDS011;76451;55.848;37.638;2024-02-26T00:13:27;8.20;;;3.05;;
85912;SDS011;76451;55.848;37.638;2024-02-26T00:13:32;8.33;;;2.80;;
85912;SDS011;76451;55.848;37.638;2024-02-26T00:13:37;6.27;;;2.53;;
85912;SDS011;76451;55.848;37.638;2024-02-26T00:13:43;5.72;;;2.40;;
85912;SDS011;76451;55.848;37.638;2024-02-26T00:13:48;5.27;;;2.40;;
85912;SDS011;76451;55.848;37.638;2024-02-26T00:13:53;5.03;;;2.40;;
85912;SDS011;76451;55.848;37.638;2024-02-26T00:13:59;5.18;;;2.47;;
85912;SDS011;76451;55.848;37.638;2024-02-26T00:14:04;5.60;;;2.67;;
85912;SDS011;76451;55.848;37.638;2024-02-26T00:14:09;5.50;;;3.00;;
85912;SDS011;76451;55.848;37.638;2024-02-26T00:14:14;5.77;;;3.03;;
85912;SDS011;76451;55.848;37.638;2024-02-26T00:14:20;6.03;;;3.10;;
85912;SDS011;76451;55.848;37.638;2024-02-26T00:14:25;6.67;;;3.03;;
85912;SDS011;76451;55.848;37.638;2024-02-26T00:14:31;6.07;;;3.00;;
85912;SDS011;76451;55.848;37.638;2024-02-26T00:14:36;5.57;;;2.90;;
85912;SDS011;76451;55.848;37.638;2024-02-26T00:14:41;6.07;;;2.80;;
85912;SDS011;76451;55.848;37.638;2024-02-26T00:14:47;6.30;;;2.70;;
85912;SDS011;76451;55.848;37.638;2024-02-26T00:14:54;5.10;;;2.70;;
85912;SDS011;76451;55.848;37.638;2024-02-26T00:15:02;5.28;;;2.70;;
85912;SDS011;76451;55.848;37.638;2024-02-26T00:15:08;5.70;;;2.70;;
85912;SDS011;76451;55.848;37.638;2024-02-26T00:15:14;5.07;;;2.72;;
85912;SDS011;76451;55.848;37.638;2024-02-26T00:15:19;4.87;;;2.83;;
85912;SDS011;76451;55.848;37.638;2024-02-26T00:15:25;4.90;;;2.73;;
85912;SDS011;76451;55.848;37.638;2024-02-26T00:15:30;5.38;;;2.85;;
85912;SDS011;76451;55.848;37.638;2024-02-26T00:15:35;5.90;;;3.03;;
85912;SDS011;76451;55.848;37.638;2024-02-26T00:15:41;5.57;;;3.10;;
85912;SDS011;76451;55.848;37.638;2024-02-26T00:15:46;5.57;;;3.20;;
85912;SDS011;76451;55.848;37.638;2024-02-26T00:15:51;5.43;;;3.27;;
85912;SDS011;76451;55.848;37.638;2024-02-26T00:15:57;5.27;;;3.20;;
85912;SDS011;76451;55.848;37.638;2024-02-26T00:16:03;4.13;;;3.07;;
85912;SDS011;76451;55.848;37.638;2024-02-26T00:16:08;3.48;;;2.78;;
85912;SDS011;76451;55.848;37.638;2024-02-26T00:16:13;2.83;;;2.47;;
85912;SDS011;76451;55.848;37.638;2024-02-26T00:16:19;3.47;;;2.60;;
85912;SDS011;76451;55.848;37.638;2024-02-26T00:16:24;3.43;;;2.50;;
85912;SDS011;76451;55.848;37.638;2024-02-26T00:16:29;3.70;;;2.63;;
85912;SDS011;76451;55.848;37.638;2024-02-26T00:16:35;4.13;;;2.73;;
85912;SDS011;76451;55.848;37.638;2024-02-26T00:16:40;4.43;;;3.07;;
85912;SDS011;76451;55.848;37.638;2024-02-26T00:16:50;4.68;;;3.09;;
85912;SDS011;76451;55.848;37.638;2024-02-26T00:16:55;5.00;;;3.33;;
85912;SDS011;76451;55.848;37.638;2024-02-26T00:17:00;5.20;;;3.20;;
85912;SDS011;76451;55.848;37.638;2024-02-26T00:17:06;5.10;;;3.10;;
85912;SDS011;76451;55.848;37.638;2024-02-26T00:17:12;5.30;;;3.30;;
85912;SDS011;76451;55.848;37.638;2024-02-26T00:17:17;5.22;;;3.40;;
85912;SDS011;76451;55.848;37.638;2024-02-26T00:17:22;5.20;;;3.53;;
85912;SDS011;76451;55.848;37.638;2024-02-26T00:17:28;5.07;;;3.42;;
85912;SDS011;76451;55.848;37.638;2024-02-26T00:17:33;4.33;;;3.37;;
85912;SDS011;76451;55.848;37.638;2024-02-26T00:17:38;4.53;;;3.17;;
85912;SDS011;76451;55.848;37.638;2024-02-26T00:17:44;4.43;;;2.97;;
85912;SDS011;76451;55.848;37.638;2024-02-26T00:17:49;4.43;;;3.00;;
85912;SDS011;76451;55.848;37.638;2024-02-26T00:17:54;4.33;;;3.03;;
85912;SDS011;76451;55.848;37.638;2024-02-26T00:17:59;4.83;;;3.27;;
85912;SDS011;76451;55.848;37.638;2024-02-26T00:18:05;5.72;;;3.70;;
85912;SDS011;76451;55.848;37.638;2024-02-26T00:18:10;5.97;;;3.97;;
85912;SDS011;76451;55.848;37.638;2024-02-26T00:18:15;5.87;;;3.97;;
85912;SDS011;76451;55.848;37.638;2024-02-26T00:18:21;6.07;;;3.80;;
85912;SDS011;76451;55.848;37.638;2024-02-26T00:18:26;6.03;;;3.42;;
85912;SDS011;76451;55.848;37.638;2024-02-26T00:18:31;5.90;;;3.20;;
85912;SDS011;76451;55.848;37.638;2024-02-26T00:18:36;5.67;;;3.17;;
85912;SDS011;76451;55.848;37.638;2024-02-26T00:18:42;5.27;;;3.03;;
85912;SDS011;76451;55.848;37.638;2024-02-26T00:18:47;5.40;;;3.20;;
85912;SDS011;76451;55.848;37.638;2024-02-26T00:18:52;4.80;;;3.20;;
85912;SDS011;76451;55.848;37.638;2024-02-26T00:18:58;4.43;;;3.27;;
85912;SDS011;76451;55.848;37.638;2024-02-26T00:19:03;4.03;;;3.08;;
85912;SDS011;76451;55.848;37.638;2024-02-26T00:19:08;5.10;;;3.20;;
85912;SDS011;76451;55.848;37.638;2024-02-26T00:19:14;5.63;;;3.37;;
85912;SDS011;76451;55.848;37.638;2024-02-26T00:19:19;5.97;;;3.43;;
85912;SDS011;76451;55.848;37.638;2024-02-26T00:19:24;6.53;;;3.60;;
85912;SDS011;76451;55.848;37.638;2024-02-26T00:19:29;7.03;;;3.80;;
85912;SDS011;76451;55.848;37.638;2024-02-26T00:19:35;7.37;;;3.67;;
85912;SDS011;76451;55.848;37.638;2024-02-26T00:19:40;6.28;;;3.42;;
85912;SDS011;76451;55.848;37.638;2024-02-26T00:19:45;6.77;;;3.20;;
85912;SDS011;76451;55.848;37.638;2024-02-26T00:19:51;5.97;;;2.90;;
85912;SDS011;76451;55.848;37.638;2024-02-26T00:19:56;5.83;;;3.00;;
85912;SDS011;76451;55.848;37.638;2024-02-26T00:20:04;5.70;;;3.05;;
85912;SDS011;76451;55.848;37.638;2024-02-26T00:20:13;5.43;;;3.12;;
85912;SDS011;76451;55.848;37.638;2024-02-26T00:20:18;4.93;;;3.10;;
85912;SDS011;76451;55.848;37.638;2024-02-26T00:20:24;4.53;;;2.90;;
85912;SDS011;76451;55.848;37.638;2024-02-26T00:20:29;4.03;;;2.70;;
85912;SDS011;76451;55.848;37.638;2024-02-26T00:20:34;3.75;;;2.47;;
85912;SDS011;76451;55.848;37.638;2024-02-26T00:20:40;2.87;;;2.33;;
85912;SDS011;76451;55.848;37.638;2024-02-26T00:20:48;2.30;;;2.10;;
85912;SDS011;76451;55.848;37.638;2024-02-26T00:20:53;2.57;;;2.37;;
85912;SDS011;76451;55.848;37.638;2024-02-26T00:20:58;2.72;;;2.50;;
85912;SDS011;76451;55.848;37.638;2024-02-26T00:21:04;2.93;;;2.57;;
85912;SDS011;76451;55.848;37.638;2024-02-26T00:21:09;3.93;;;2.73;;
85912;SDS011;76451;55.848;37.638;2024-02-26T00:21:14;5.50;;;3.40;;
85912;SDS011;76451;55.848;37.638;2024-02-26T00:21:20;6.20;;;3.53;;
85912;SDS011;76451;55.848;37.638;2024-02-26T00:21:25;6.13;;;3.40;;
85912;SDS011;76451;55.848;37.638;2024-02-26T00:21:30;6.50;;;3.70;;
85912;SDS011;76451;55.848;37.638;2024-02-26T00:21:39;7.10;;;4.00;;
85912;SDS011;76451;55.848;37.638;2024-02-26T00:21:44;6.10;;;3.77;;
85912;SDS011;76451;55.848;37.638;2024-02-26T00:21:50;5.72;;;3.42;;
85912;SDS011;76451;55.848;37.638;2024-02-26T00:21:55;6.00;;;3.50;;
85912;SDS011;76451;55.848;37.638;2024-02-26T00:22:00;6.00;;;3.50;;
85912;SDS011;76451;55.848;37.638;2024-02-26T00:22:06;6.00;;;3.38;;
85912;SDS011;76451;55.848;37.638;2024-02-26T00:22:11;6.10;;;3.17;;
85912;SDS011;76451;55.848;37.638;2024-02-26T00:22:16;6.10;;;3.13;;
85912;SDS011;76451;55.848;37.638;2024-02-26T00:22:22;5.85;;;3.28;;
85912;SDS011;76451;55.848;37.638;2024-02-26T00:22:27;8.53;;;3.17;;
85912;SDS011;76451;55.848;37.638;2024-02-26T00:22:32;7.93;;;2.90;;
85912;SDS011;76451;55.848;37.638;2024-02-26T00:22:38;7.20;;;2.70;;
85912;SDS011;76451;55.848;37.638;2024-02-26T00:22:43;6.18;;;2.53;;
85912;SDS011;76451;55.848;37.638;2024-02-26T00:22:48;5.80;;;2.23;;
85912;SDS011;76451;55.848;37.638;2024-02-26T00:22:54;5.73;;;2.10;;
85912;SDS011;76451;55.848;37.638;2024-02-26T00:22:59;2.73;;;2.00;;
85912;SDS011;76451;55.848;37.638;2024-02-26T00:23:04;2.83;;;2.25;;
85912;SDS011;76451;55.848;37.638;2024-02-26T00:23:09;2.93;;;2.17;;
85912;SDS011;76451;55.848;37.638;2024-02-26T00:23:15;4.30;;;2.43;;
85912;SDS011;76451;55.848;37.638;2024-02-26T00:23:20;4.93;;;2.72;;
85912;SDS011;76451;55.848;37.638;2024-02-26T00:23:26;5.10;;;2.90;;
85912;SDS011;76451;55.848;37.638;2024-02-26T00:23:32;5.10;;;2.73;;
85912;SDS011;76451;55.848;37.638;2024-02-26T00:23:37;5.13;;;2.80;;
85912;SDS011;76451;55.848;37.638;2024-02-26T00:23:43;4.40;;;2.77;;
85912;SDS011;76451;55.848;37.638;2024-02-26T00:23:52;3.70;;;2.67;;
85912;SDS011;76451;55.848;37.638;2024-02-26T00:23:58;4.34;;;2.60;;
85912;SDS011;76451;55.848;37.638;2024-02-26T00:24:03;4.53;;;2.63;;
85912;SDS011;76451;55.848;37.638;2024-02-26T00:24:08;5.35;;;2.75;;
85912;SDS011;76451;55.848;37.638;2024-02-26T00:24:14;5.40;;;2.67;;
85912;SDS011;76451;55.848;37.638;2024-02-26T00:24:19;5.60;;;2.73;;
85912;SDS011;76451;55.848;37.638;2024-02-26T00:24:25;4.43;;;2.60;;
85912;SDS011;76451;55.848;37.638;2024-02-26T00:24:30;4.10;;;2.60;;
85912;SDS011;76451;55.848;37.638;2024-02-26T00:24:35;3.50;;;2.45;;
85912;SDS011;76451;55.848;37.638;2024-02-26T00:24:41;3.97;;;2.60;;
85912;SDS011;76451;55.848;37.638;2024-02-26T00:24:46;4.90;;;2.60;;
85912;SDS011;76451;55.848;37.638;2024-02-26T00:24:51;4.72;;;2.40;;
85912;SDS011;76451;55.848;37.638;2024-02-26T00:24:57;4.90;;;2.40;;
85912;SDS011;76451;55.848;37.638;2024-02-26T00:25:02;5.00;;;2.57;;
85912;SDS011;76451;55.848;37.638;2024-02-26T00:25:08;4.93;;;2.50;;
85912;SDS011;76451;55.848;37.638;2024-02-26T00:25:14;3.97;;;2.38;;
85912;SDS011;76451;55.848;37.638;2024-02-26T00:25:19;3.83;;;2.40;;
85912;SDS011;76451;55.848;37.638;2024-02-26T00:25:24;4.90;;;2.53;;
85912;SDS011;76451;55.848;37.638;2024-02-26T00:25:29;5.40;;;2.70;;
85912;SDS011;76451;55.848;37.638;2024-02-26T00:25:35;5.60;;;2.67;;
85912;SDS011;76451;55.848;37.638;2024-02-26T00:25:41;6.27;;;2.77;;
85912;SDS011;76451;55.848;37.638;2024-02-26T00:25:48;6.42;;;2.96;;
85912;SDS011;76451;55.848;37.638;2024-02-26T00:25:53;5.97;;;2.93;;
85912;SDS011;76451;55.848;37.638;2024-02-26T00:25:59;5.30;;;2.80;;
85912;SDS011;76451;55.848;37.638;2024-02-26T00:26:04;5.72;;;2.83;;
85912;SDS011;76451;55.848;37.638;2024-02-26T00:26:09;5.97;;;3.00;;
85912;SDS011;76451;55.848;37.638;2024-02-26T00:26:16;6.23;;;3.27;;
85912;SDS011;76451;55.848;37.638;2024-02-26T00:26:21;5.85;;;3.10;;
85912;SDS011;76451;55.848;37.638;2024-02-26T00:26:26;5.30;;;3.10;;
85912;SDS011;76451;55.848;37.638;2024-02-26T00:26:31;4.73;;;3.10;;
85912;SDS011;76451;55.848;37.638;2024-02-26T00:26:37;4.73;;;3.07;;
85912;SDS011;76451;55.848;37.638;2024-02-26T00:26:42;3.60;;;2.78;;
85912;SDS011;76451;55.848;37.638;2024-02-26T00:26:47;4.07;;;2.60;;
85912;SDS011;76451;55.848;37.638;2024-02-26T00:26:58;5.93;;;2.80;;
85912;SDS011;76451;55.848;37.638;2024-02-26T00:27:04;6.13;;;2.70;;
85912;SDS011;76451;55.848;37.638;2024-02-26T00:27:09;6.03;;;2.75;;
85912;SDS011;76451;55.848;37.638;2024-02-26T00:27:14;5.60;;;2.80;;
85912;SDS011;76451;55.848;37.638;2024-02-26T00:27:20;4.67;;;2.60;;
85912;SDS011;76451;55.848;37.638;2024-02-26T00:27:25;5.97;;;2.70;;
85912;SDS011;76451;55.848;37.638;2024-02-26T00:27:30;4.85;;;2.75;;
85912;SDS011;76451;55.848;37.638;2024-02-26T00:27:36;5.83;;;2.83;;
85912;SDS011;76451;55.848;37.638;2024-02-26T00:27:41;6.40;;;3.00;;
85912;SDS011;76451;55.848;37.638;2024-02-26T00:27:48;6.90;;;3.28;;
85912;SDS011;76451;55.848;37.638;2024-02-26T00:27:54;6.10;;;3.20;;
85912;SDS011;76451;55.848;37.638;2024-02-26T00:27:59;6.23;;;3.27;;
85912;SDS011;76451;55.848;37.638;2024-02-26T00:28:04;5.27;;;3.20;;
85912;SDS011;76451;55.848;37.638;2024-02-26T00:28:10;4.93;;;3.05;;
85912;SDS011;76451;55.848;37.638;2024-02-26T00:28:15;5.07;;;3.00;;
85912;SDS011;76451;55.848;37.638;2024-02-26T00:28:21;5.33;;;3.17;;
85912;SDS011;76451;55.848;37.638;2024-02-26T00:28:26;5.20;;;3.27;;
85912;SDS011;76451;55.848;37.638;2024-02-26T00:28:32;5.28;;;3.35;;
85912;SDS011;76451;55.848;37.638;2024-02-26T00:28:37;5.03;;;3.20;;
85912;SDS011;76451;55.848;37.638;2024-02-26T00:28:43;4.80;;;3.08;;
85912;SDS011;76451;55.848;37.638;2024-02-26T00:28:48;4.27;;;2.93;;
85912;SDS011;76451;55.848;37.638;2024-02-26T00:28:53;3.77;;;2.73;;
85912;SDS011;76451;55.848;37.638;2024-02-26T00:28:59;3.53;;;2.63;;
85912;SDS011;76451;55.848;37.638;2024-02-26T00:29:04;3.93;;;2.70;;
85912;SDS011;76451;55.848;37.638;2024-02-26T00:29:09;3.80;;;2.70;;
85912;SDS011;76451;55.848;37.638;2024-02-26T00:29:15;3.65;;;2.60;;
85912;SDS011;76451;55.848;37.638;2024-02-26T00:29:20;3.33;;;2.53;;
85912;SDS011;76451;55.848;37.638;2024-02-26T00:29:26;3.95;;;2.70;;
85912;SDS011;76451;55.848;37.638;2024-02-26T00:29:31;3.83;;;2.67;;
85912;SDS011;76451;55.848;37.638;2024-02-26T00:29:37;3.75;;;2.75;;
85912;SDS011;76451;55.848;37.638;2024-02-26T00:29:42;3.90;;;2.73;;
85912;SDS011;76451;55.848;37.638;2024-02-26T00:29:48;4.40;;;2.83;;
85912;SDS011;76451;55.848;37.638;2024-02-26T00:29:53;4.90;;;3.13;;
85912;SDS011;76451;55.848;37.638;2024-02-26T00:29:58;4.60;;;3.03;;
85912;SDS011;76451;55.848;37.638;2024-02-26T00:30:04;4.80;;;3.20;;
85912;SDS011;76451;55.848;37.638;2024-02-26T00:30:09;5.03;;;3.40;;
85912;SDS011;76451;55.848;37.638;2024-02-26T00:30:15;5.40;;;3.73;;
85912;SDS011;76451;55.848;37.638;2024-02-26T00:30:20;4.55;;;3.60;;
85912;SDS011;76451;55.848;37.638;2024-02-26T00:30:25;4.17;;;3.30;;
85912;SDS011;76451;55.848;37.638;2024-02-26T00:30:31;3.87;;;3.20;;
85912;SDS011;76451;55.848;37.638;2024-02-26T00:30:36;3.47;;;2.95;;
85912;SDS011;76451;55.848;37.638;2024-02-26T00:30:41;2.87;;;2.57;;
85912;SDS011;76451;55.848;37.638;2024-02-26T00:30:47;2.63;;;2.30;;
85912;SDS011;76451;55.848;37.638;2024-02-26T00:30:52;2.88;;;2.53;;
85912;SDS011;76451;55.848;37.638;2024-02-26T00:31:00;2.90;;;2.60;;
85912;SDS011;76451;55.848;37.638;2024-02-26T00:31:06;2.60;;;2.33;;
85912;SDS011;76451;55.848;37.638;2024-02-26T00:31:11;2.80;;;2.40;;
85912;SDS011;76451;55.848;37.638;2024-02-26T00:31:16;3.22;;;2.45;;
85912;SDS011;76451;55.848;37.638;2024-02-26T00:31:22;3.73;;;2.47;;
85912;SDS011;76451;55.848;37.638;2024-02-26T00:31:27;4.27;;;2.67;;
85912;SDS011;76451;55.848;37.638;2024-02-26T00:31:33;5.07;;;3.05;;
85912;SDS011;76451;55.848;37.638;2024-02-26T00:31:38;5.43;;;3.20;;
85912;SDS011;76451;55.848;37.638;2024-02-26T00:31:43;5.43;;;3.50;;
85912;SDS011;76451;55.848;37.638;2024-02-26T00:31:49;5.70;;;3.70;;
85912;SDS011;76451;55.848;37.638;2024-02-26T00:31:54;5.13;;;3.53;;
85912;SDS011;76451;55.848;37.638;2024-02-26T00:31:59;5.00;;;3.47;;
85912;SDS011;76451;55.848;37.638;2024-02-26T00:32:05;4.78;;;3.42;;
85912;SDS011;76451;55.848;37.638;2024-02-26T00:32:10;4.87;;;3.40;;
85912;SDS011;76451;55.848;37.638;2024-02-26T00:32:15;4.70;;;3.30;;
85912;SDS011;76451;55.848;37.638;2024-02-26T00:32:21;4.13;;;3.15;;
85912;SDS011;76451;55.848;37.638;2024-02-26T00:32:26;4.03;;;3.00;;
85912;SDS011;76451;55.848;37.638;2024-02-26T00:32:31;4.10;;;3.00;;
85912;SDS011;76451;55.848;37.638;2024-02-26T00:32:36;4.07;;;3.03;;
85912;SDS011;76451;55.848;37.638;2024-02-26T00:32:42;3.65;;;2.88;;
85912;SDS011;76451;55.848;37.638;2024-02-26T00:32:47;3.37;;;2.60;;
85912;SDS011;76451;55.848;37.638;2024-02-26T00:32:52;3.57;;;2.60;;
85912;SDS011;76451;55.848;37.638;2024-02-26T00:32:58;3.90;;;2.60;;
85912;SDS011;76451;55.848;37.638;2024-02-26T00:33:03;3.63;;;2.47;;
85912;SDS011;76451;55.848;37.638;2024-02-26T00:33:08;3.40;;;2.23;;